createdAt,value
2023-02-24T00:08:40.661Z,0.0
2023-02-24T00:18:10.824Z,0.0
2023-02-24T00:25:09.296Z,0.0
2023-02-24T00:32:04.049Z,0.0
2023-02-24T00:39:01.106Z,0.0
2023-02-24T00:45:45.618Z,0.0
2023-02-24T00:53:22.616Z,0.0
2023-02-24T01:00:23.357Z,0.0
2023-02-24T01:08:49.947Z,0.0
2023-02-24T01:17:34.114Z,0.0
2023-02-24T01:25:28.671Z,0.0
2023-02-24T01:38:02.488Z,0.0
2023-02-24T01:44:59.125Z,0.0
2023-02-24T01:51:53.346Z,0.0
2023-02-24T01:59:13.459Z,0.0
2023-02-24T02:06:21.870Z,0.0
2023-02-24T02:13:03.009Z,0.0
2023-02-24T02:19:43.632Z,0.0
2023-02-24T02:26:21.520Z,0.0
2023-02-24T02:33:06.714Z,0.0
2023-02-24T02:39:45.682Z,0.0
2023-02-24T02:49:21.829Z,0.0
2023-02-24T02:56:14.072Z,0.0
2023-02-24T03:03:51.108Z,0.0
2023-02-24T03:10:42.694Z,0.0
2023-02-24T03:19:18.973Z,0.0
2023-02-24T03:27:43.697Z,0.0
2023-02-24T03:40:39.206Z,0.0
2023-02-24T03:55:27.701Z,0.0
2023-02-24T04:07:19.456Z,0.0
2023-02-24T04:14:04.195Z,0.0
2023-02-24T04:20:36.091Z,0.0
2023-02-24T04:27:09.205Z,0.0
2023-02-24T04:33:46.425Z,0.0
2023-02-24T04:41:09.616Z,0.0
2023-02-24T04:49:59.043Z,0.0
2023-02-24T04:56:44.995Z,0.0
2023-02-24T05:03:52.287Z,0.0
2023-02-24T05:10:50.149Z,0.0
2023-02-24T05:17:35.869Z,0.0
2023-02-24T05:24:14.495Z,0.0
2023-02-24T05:31:01.151Z,0.0
2023-02-24T05:38:08.614Z,0.0
2023-02-24T05:44:58.779Z,0.0
2023-02-24T05:51:45.963Z,0.0
2023-02-24T05:58:41.344Z,0.0
2023-02-24T06:07:54.098Z,0.0
2023-02-24T06:15:23.533Z,0.0
2023-02-24T06:25:42.701Z,0.0
2023-02-24T06:33:24.195Z,0.0
2023-02-24T06:40:07.413Z,0.0
2023-02-24T06:46:53.770Z,0.0
2023-02-24T06:53:35.185Z,0.0
2023-02-24T07:00:11.796Z,0.328963210702341
2023-02-24T07:06:45.867Z,1.6269899665551844
2023-02-24T07:13:38.448Z,2.4033779264214057
2023-02-24T07:20:20.247Z,3.0826086956521723
2023-02-24T07:27:22.753Z,4.026588628762543
2023-02-24T07:34:19.965Z,6.456521739130437
2023-02-24T07:42:38.946Z,10.081906354515057
2023-02-24T07:50:24.051Z,5.41341137123746
2023-02-24T07:57:21.778Z,3.079765886287624
2023-02-24T08:04:21.108Z,4.370802675585284
2023-02-24T08:11:04.328Z,6.191404682274245
2023-02-24T08:18:17.150Z,9.564046822742476
2023-02-24T08:25:48.610Z,7.1733110367893
2023-02-24T08:33:41.135Z,7.273010033444821
2023-02-24T08:49:27.456Z,26.69963210702341
2023-02-24T08:56:40.989Z,19.68297658862876
2023-02-24T09:03:39.959Z,14.544113712374575
2023-02-24T09:11:21.980Z,16.89772575250836
2023-02-24T09:19:02.891Z,20.487926421404712
2023-02-24T09:36:09.261Z,21.923779264214044
2023-02-24T09:44:35.925Z,23.88250836120401
2023-02-24T09:51:26.136Z,27.712441471571914
2023-02-24T09:58:11.484Z,24.307056856187295
2023-02-24T10:04:57.193Z,25.790635451504993
2023-02-24T10:15:01.527Z,23.496856187290966
2023-02-24T10:22:43.497Z,21.0675585284281
2023-02-24T10:29:28.465Z,23.086789297658843
2023-02-24T10:36:14.668Z,31.360000000000017
2023-02-24T10:43:01.372Z,22.4253177257525
2023-02-24T10:49:39.062Z,24.176086956521758
2023-02-24T10:56:19.949Z,15.257959866220714
2023-02-24T11:03:11.080Z,15.569665551839467
2023-02-24T11:13:52.449Z,40.42541806020068
2023-02-24T11:20:47.864Z,8.287090301003344
2023-02-24T11:27:43.292Z,22.065050167224072
2023-02-24T11:34:26.539Z,21.150602006688967
2023-02-24T11:41:08.075Z,28.50615384615384
2023-02-24T11:48:41.403Z,27.603612040133815
2023-02-24T12:00:11.975Z,40.41280936454849
2023-02-24T12:07:45.310Z,31.393511705685594
2023-02-24T12:14:35.476Z,35.950167224080275
2023-02-24T12:21:45.999Z,65.25816053511704
2023-02-24T12:32:45.195Z,44.592876254180624
2023-02-24T12:39:30.851Z,68.34976588628766
2023-02-24T12:46:13.163Z,64.06943143812713
2023-02-24T12:53:01.977Z,72.7252508361204
2023-02-24T13:00:06.422Z,66.26371237458191
2023-02-24T13:07:00.597Z,61.69351170568567
2023-02-24T13:13:36.797Z,31.62595317725751
2023-02-24T13:20:17.155Z,50.542374581939804
2023-02-24T13:26:52.408Z,127.34849498327756
2023-02-24T13:38:19.844Z,61.93494983277593
2023-02-24T13:45:33.498Z,50.21792642140467
2023-02-24T13:56:43.091Z,30.385117056856185
2023-02-24T14:05:36.555Z,42.49662207357858
2023-02-24T14:19:35.942Z,65.12558528428096
2023-02-24T14:26:14.702Z,62.13872909698993
2023-02-24T14:33:14.885Z,30.828394648829445
2023-02-24T14:39:56.338Z,18.49484949832776
2023-02-24T14:46:51.772Z,48.793545150501686
2023-02-24T14:54:25.261Z,67.65632107023409
2023-02-24T15:01:12.376Z,43.55515050167222
2023-02-24T15:14:00.364Z,46.10872909698998
2023-02-24T15:21:14.254Z,34.10525083612036
2023-02-24T15:28:42.908Z,31.42682274247491
2023-02-24T15:35:35.532Z,41.03301003344484
2023-02-24T15:42:17.270Z,5.930936454849498
2023-02-24T15:48:55.063Z,11.414247491638799
2023-02-24T15:55:32.231Z,10.710635451505013
2023-02-24T16:02:09.015Z,4.06732441471572
2023-02-24T16:08:44.788Z,3.984147157190634
2023-02-24T16:15:23.939Z,2.8149832775919723
2023-02-24T16:22:03.503Z,1.946354515050165
2023-02-24T16:41:35.579Z,0.0
2023-02-24T16:50:32.059Z,0.0
2023-02-24T16:57:17.984Z,0.0
2023-02-24T17:09:55.152Z,0.0
2023-02-24T17:16:28.046Z,0.0
2023-02-24T17:24:43.314Z,0.0
2023-02-24T17:35:52.578Z,0.0
2023-02-24T17:43:09.141Z,0.0
2023-02-24T17:54:12.940Z,0.0
2023-02-24T18:01:33.425Z,0.0
2023-02-24T18:15:08.916Z,0.0
2023-02-24T18:24:39.412Z,0.0
2023-02-24T18:31:54.899Z,0.0
2023-02-24T18:43:20.732Z,0.0
2023-02-24T18:50:50.209Z,0.0
2023-02-24T18:57:33.899Z,0.0
2023-02-24T19:04:25.427Z,0.0
2023-02-24T19:15:06.465Z,0.0
2023-02-24T19:33:22.191Z,0.0
2023-02-24T19:40:18.404Z,0.0
2023-02-24T19:47:51.269Z,0.0
2023-02-24T19:55:51.014Z,0.0
2023-02-24T20:02:25.078Z,0.0
2023-02-24T20:09:23.118Z,0.0
2023-02-24T20:17:14.923Z,0.0
2023-02-24T20:23:54.580Z,0.0
2023-02-24T20:36:11.044Z,0.0
2023-02-24T20:42:59.586Z,0.0
2023-02-24T20:49:37.630Z,0.0
2023-02-24T20:56:16.694Z,0.0
2023-02-24T21:02:51.550Z,0.0
2023-02-24T21:09:27.965Z,0.0
2023-02-24T21:16:04.111Z,0.0
2023-02-24T21:22:36.762Z,0.0
2023-02-24T21:35:41.961Z,0.0
2023-02-24T21:42:37.113Z,0.0
2023-02-24T21:49:26.990Z,0.0
2023-02-24T21:57:00.036Z,0.0
2023-02-24T22:05:19.553Z,0.0
2023-02-24T22:12:15.610Z,0.0
2023-02-24T22:20:00.745Z,0.0
2023-02-24T22:31:15.078Z,0.0
2023-02-24T22:43:11.679Z,0.0
2023-02-24T22:58:46.699Z,0.0
2023-02-24T23:08:20.967Z,0.0
2023-02-24T23:17:41.835Z,0.0
2023-02-24T23:25:21.144Z,0.0
2023-02-24T23:37:30.732Z,0.0
2023-02-24T23:46:53.390Z,0.0
2023-02-24T23:56:39.821Z,0.0
